createdAt,value
2022-09-09T00:00:35.229Z,95173.33
2022-09-09T00:03:01.757Z,95171.09
2022-09-09T00:05:28.080Z,95167.69
2022-09-09T00:07:54.475Z,95163.80
2022-09-09T00:10:20.831Z,95153.09
2022-09-09T00:12:47.200Z,95154.86
2022-09-09T00:15:13.570Z,95159.56
2022-09-09T00:17:39.943Z,95162.98
2022-09-09T00:20:06.306Z,95163.80
2022-09-09T00:22:32.713Z,95160.86
2022-09-09T00:24:59.034Z,95161.22
2022-09-09T00:27:25.409Z,95157.45
2022-09-09T00:29:51.768Z,95154.39
2022-09-09T00:32:18.150Z,95143.70
2022-09-09T00:34:44.509Z,95141.93
2022-09-09T00:37:10.969Z,95144.98
2022-09-09T00:39:37.368Z,95139.81
2022-09-09T00:42:03.696Z,95135.61
2022-09-09T00:44:30.062Z,95132.05
2022-09-09T00:46:56.463Z,95120.41
2022-09-09T00:49:22.846Z,95126.09
2022-09-09T00:51:49.246Z,95105.86
2022-09-09T00:54:15.609Z,95108.45
2022-09-09T00:56:41.970Z,95117.03
2022-09-09T00:59:08.382Z,95115.74
2022-09-09T01:01:34.814Z,95119.12
2022-09-09T01:04:01.110Z,95115.74
2022-09-09T01:06:27.483Z,95113.95
2022-09-09T01:08:53.841Z,95111.51
2022-09-09T01:11:20.206Z,95108.09
2022-09-09T01:13:46.574Z,95111.98
2022-09-09T01:16:12.999Z,95118.80
2022-09-09T01:18:39.339Z,95121.86
2022-09-09T01:21:05.700Z,95121.39
2022-09-09T01:23:32.060Z,95121.86
2022-09-09T01:25:58.432Z,95122.21
2022-09-09T01:28:24.789Z,95116.33
2022-09-09T01:30:51.245Z,95117.63
2022-09-09T01:33:17.537Z,95111.98
2022-09-09T01:35:43.910Z,95115.39
2022-09-09T01:38:10.286Z,95108.09
2022-09-09T01:40:36.696Z,95114.56
2022-09-09T01:43:03.057Z,95120.56
2022-09-09T01:45:29.420Z,95131.73
2022-09-09T01:47:55.782Z,95139.96
2022-09-09T01:50:22.157Z,95132.31
2022-09-09T01:52:48.510Z,95133.49
2022-09-09T01:55:14.888Z,95138.78
2022-09-09T01:57:41.241Z,95134.91
2022-09-09T02:00:07.608Z,95136.55
2022-09-09T02:02:34.047Z,95140.08
2022-09-09T02:05:00.334Z,95140.55
2022-09-09T02:07:26.696Z,95143.48
2022-09-09T02:09:53.068Z,95137.38
2022-09-09T02:12:19.425Z,95140.31
2022-09-09T02:14:45.787Z,95135.94
2022-09-09T02:17:12.174Z,95139.70
2022-09-09T02:19:38.572Z,95138.52
2022-09-09T02:22:04.949Z,95137.23
2022-09-09T02:24:31.311Z,95132.05
2022-09-09T02:26:57.665Z,95126.88
2022-09-09T02:29:24.035Z,95113.95
2022-09-09T02:31:50.390Z,95102.10
2022-09-09T02:34:16.749Z,95108.57
2022-09-09T02:36:43.108Z,95115.86
2022-09-09T02:39:09.466Z,95114.56
2022-09-09T02:41:35.830Z,95113.27
2022-09-09T02:44:02.193Z,95118.45
2022-09-09T02:46:28.582Z,95120.09
2022-09-09T02:48:54.943Z,95127.85
2022-09-09T02:51:21.364Z,95131.37
2022-09-09T02:53:47.748Z,95132.20
2022-09-09T02:56:14.110Z,95135.73
2022-09-09T02:58:40.473Z,95140.08
2022-09-09T03:01:06.861Z,95142.34
2022-09-09T03:03:33.218Z,95136.34
2022-09-09T03:05:59.574Z,95132.27
2022-09-09T03:08:25.944Z,95124.15
2022-09-09T03:10:52.339Z,95128.14
2022-09-09T03:13:18.687Z,95134.28
2022-09-09T03:15:45.026Z,95140.39
2022-09-09T03:18:11.403Z,95147.33
2022-09-09T03:20:37.740Z,95147.22
2022-09-09T03:23:04.080Z,95143.81
2022-09-09T03:25:30.419Z,95145.10
2022-09-09T03:27:56.788Z,95142.62
2022-09-09T03:30:23.141Z,95143.59
2022-09-09T03:32:49.490Z,95142.77
2022-09-09T03:35:15.836Z,95146.30
2022-09-09T03:37:42.174Z,95151.94
2022-09-09T03:40:08.589Z,95146.56
2022-09-09T03:42:35.273Z,95145.63
2022-09-09T03:45:01.608Z,95144.91
2022-09-09T03:47:27.951Z,95152.09
2022-09-09T03:49:54.288Z,95144.33
2022-09-09T03:52:23.670Z,95143.98
2022-09-09T03:54:46.973Z,95146.56
2022-09-09T03:57:13.317Z,95148.21
2022-09-09T03:59:39.645Z,95144.45
2022-09-09T04:02:06.036Z,95149.83
2022-09-09T04:04:32.325Z,95146.91
2022-09-09T04:06:58.688Z,95147.23
2022-09-09T04:09:25.025Z,95147.59
2022-09-09T04:11:51.370Z,95154.44
2022-09-09T04:14:17.736Z,95152.55
2022-09-09T04:16:44.181Z,95150.18
2022-09-09T04:19:10.412Z,95159.38
2022-09-09T04:21:36.758Z,95161.81
2022-09-09T04:24:03.297Z,95151.12
2022-09-09T04:26:29.640Z,95149.03
2022-09-09T04:28:55.985Z,95149.36
2022-09-09T04:31:22.398Z,95152.41
2022-09-09T04:33:48.673Z,95157.00
2022-09-09T04:36:15.045Z,95155.00
2022-09-09T04:38:41.386Z,95150.44
2022-09-09T04:41:07.756Z,95150.53
2022-09-09T04:43:36.054Z,95153.18
2022-09-09T04:46:00.573Z,95167.64
2022-09-09T04:48:26.771Z,95162.38
2022-09-09T04:50:53.115Z,95169.05
2022-09-09T04:53:19.452Z,95164.14
2022-09-09T04:55:45.792Z,95161.44
2022-09-09T04:58:12.132Z,95153.53
2022-09-09T05:00:38.537Z,95151.66
2022-09-09T05:03:04.821Z,95153.18
2022-09-09T05:05:31.159Z,95132.27
2022-09-09T05:07:57.496Z,95134.34
2022-09-09T05:10:23.837Z,95140.75
2022-09-09T05:12:50.180Z,95133.78
2022-09-09T05:15:16.521Z,95132.48
2022-09-09T05:17:42.855Z,95127.47
2022-09-09T05:20:10.742Z,95120.38
2022-09-09T05:22:35.601Z,95118.71
2022-09-09T05:25:01.951Z,95127.77
2022-09-09T05:27:28.279Z,95124.44
2022-09-09T05:29:54.622Z,95117.98
2022-09-09T05:32:20.955Z,95111.59
2022-09-09T05:34:47.304Z,95118.06
2022-09-09T05:37:13.656Z,95111.30
2022-09-09T05:39:40.097Z,95107.55
2022-09-09T05:42:06.344Z,95107.98
2022-09-09T05:44:32.696Z,95120.41
2022-09-09T05:46:59.138Z,95109.39
2022-09-09T05:49:25.404Z,95109.28
2022-09-09T05:51:51.752Z,95117.83
2022-09-09T05:54:18.084Z,95127.59
2022-09-09T05:56:46.902Z,95134.34
2022-09-09T05:59:10.779Z,95127.12
2022-09-09T06:01:37.312Z,95124.17
2022-09-09T06:04:03.507Z,95121.67
2022-09-09T06:06:29.847Z,95127.59
2022-09-09T06:08:56.187Z,95137.94
2022-09-09T06:11:22.568Z,95142.14
2022-09-09T06:13:48.887Z,95144.34
2022-09-09T06:16:15.326Z,95146.22
2022-09-09T06:18:41.582Z,95149.31
2022-09-09T06:21:07.921Z,95146.37
2022-09-09T06:23:34.264Z,95144.98
2022-09-09T06:26:00.614Z,95139.38
2022-09-09T06:28:26.954Z,95137.31
2022-09-09T06:30:53.295Z,95149.16
2022-09-09T06:33:19.638Z,95145.52
2022-09-09T06:35:45.976Z,95141.38
2022-09-09T06:38:13.518Z,95140.08
2022-09-09T06:40:38.679Z,95140.80
2022-09-09T06:43:05.019Z,95135.94
2022-09-09T06:45:31.362Z,95133.61
2022-09-09T06:47:57.709Z,95130.67
2022-09-09T06:50:24.117Z,95134.28
2022-09-09T06:52:50.411Z,95128.59
2022-09-09T06:55:16.794Z,95129.77
2022-09-09T06:57:43.120Z,95133.66
2022-09-09T07:00:09.469Z,95147.02
2022-09-09T07:02:35.811Z,95146.24
2022-09-09T07:05:02.188Z,95147.41
2022-09-09T07:07:28.531Z,95150.86
2022-09-09T07:09:54.873Z,95148.66
2022-09-09T07:12:22.619Z,95145.25
2022-09-09T07:14:47.569Z,95155.25
2022-09-09T07:17:13.904Z,95122.40
2022-09-09T07:19:40.256Z,95142.31
2022-09-09T07:22:06.600Z,95140.98
2022-09-09T07:24:32.944Z,95141.13
2022-09-09T07:26:59.316Z,95139.81
2022-09-09T07:29:25.656Z,95137.49
2022-09-09T07:31:52.032Z,95137.25
2022-09-09T07:34:18.368Z,95129.44
2022-09-09T07:36:44.758Z,95134.94
2022-09-09T07:39:11.101Z,95134.26
2022-09-09T07:41:37.491Z,95129.73
2022-09-09T07:44:03.838Z,95133.84
2022-09-09T07:46:30.214Z,95127.80
2022-09-09T07:48:56.547Z,95135.73
2022-09-09T07:51:22.924Z,95145.95
2022-09-09T07:53:49.266Z,95143.13
2022-09-09T07:56:15.608Z,95145.95
2022-09-09T07:58:41.943Z,95147.57
2022-09-09T08:01:08.283Z,95141.46
2022-09-09T08:03:34.669Z,95140.52
2022-09-09T08:06:00.971Z,95134.81
2022-09-09T08:08:27.316Z,95127.17
2022-09-09T08:10:53.650Z,95126.86
2022-09-09T08:13:19.998Z,95130.84
2022-09-09T08:15:46.404Z,95134.47
2022-09-09T08:18:12.700Z,95137.31
2022-09-09T08:20:39.053Z,95131.61
2022-09-09T08:23:05.401Z,95132.44
2022-09-09T08:25:31.738Z,95131.05
2022-09-09T08:27:58.083Z,95122.47
2022-09-09T08:30:24.431Z,95129.02
2022-09-09T08:32:53.359Z,95124.12
2022-09-09T08:35:17.110Z,95128.29
2022-09-09T08:37:43.481Z,95124.20
2022-09-09T08:40:09.860Z,95120.70
2022-09-09T08:42:36.217Z,95125.30
2022-09-09T08:45:02.544Z,95123.31
2022-09-09T08:47:33.595Z,95123.82
2022-09-09T08:49:55.261Z,95117.35
2022-09-09T08:52:21.631Z,95122.17
2022-09-09T08:54:52.640Z,95118.59
2022-09-09T08:57:14.314Z,95118.41
2022-09-09T08:59:40.665Z,95119.59
2022-09-09T09:02:07.065Z,95122.53
2022-09-09T09:04:33.402Z,95110.06
2022-09-09T09:06:59.697Z,95111.36
2022-09-09T09:09:26.048Z,95115.56
2022-09-09T09:11:52.431Z,95118.41
2022-09-09T09:14:18.817Z,95111.19
2022-09-09T09:16:45.120Z,95111.62
2022-09-09T09:19:11.452Z,95109.30
2022-09-09T09:21:37.796Z,95109.78
2022-09-09T09:24:04.158Z,95109.51
2022-09-09T09:26:30.519Z,95109.04
2022-09-09T09:28:56.857Z,95111.12
2022-09-09T09:31:23.345Z,95102.02
2022-09-09T09:33:49.654Z,95096.52
2022-09-09T09:36:15.996Z,95107.75
2022-09-09T09:41:08.728Z,95109.59
2022-09-09T09:43:35.106Z,95106.19
2022-09-09T09:46:16.583Z,95103.69
2022-09-09T09:48:27.759Z,95107.86
2022-09-09T09:50:54.129Z,95108.21
2022-09-09T09:53:20.469Z,95099.30
2022-09-09T09:55:46.823Z,95088.09
2022-09-09T09:58:15.177Z,95076.91
2022-09-09T10:00:39.585Z,95081.73
2022-09-09T10:03:05.948Z,95078.20
2022-09-09T10:05:36.068Z,95083.38
2022-09-09T10:07:58.679Z,95075.69
2022-09-09T10:10:25.028Z,95075.25
2022-09-09T10:12:51.475Z,95076.27
2022-09-09T10:15:17.771Z,95081.06
2022-09-09T10:17:44.152Z,95086.30
2022-09-09T10:20:10.503Z,95085.30
2022-09-09T10:22:36.933Z,95085.70
2022-09-09T10:25:03.282Z,95091.82
2022-09-09T10:27:29.633Z,95092.09
2022-09-09T10:29:55.986Z,95091.91
2022-09-09T10:32:22.386Z,95092.49
2022-09-09T10:34:48.733Z,95091.20
2022-09-09T10:37:15.082Z,95093.78
2022-09-09T10:39:43.078Z,95096.81
2022-09-09T10:42:07.787Z,95094.70
2022-09-09T10:44:34.174Z,95094.08
2022-09-09T10:47:08.043Z,95093.61
2022-09-09T10:49:26.865Z,95090.08
2022-09-09T10:51:53.213Z,95090.40
2022-09-09T10:54:19.564Z,95094.55
2022-09-09T10:56:45.909Z,95096.19
2022-09-09T10:59:12.256Z,95091.11
2022-09-09T11:01:38.713Z,95092.87
2022-09-09T11:04:04.989Z,95086.41
2022-09-09T11:06:31.366Z,95086.02
2022-09-09T11:08:57.694Z,95093.78
2022-09-09T11:11:24.034Z,95094.86
2022-09-09T11:13:50.405Z,95091.05
2022-09-09T11:16:16.755Z,95093.72
2022-09-09T11:18:43.097Z,95099.44
2022-09-09T11:21:09.446Z,95097.45
2022-09-09T11:23:38.834Z,95094.41
2022-09-09T11:26:02.146Z,95092.79
2022-09-09T11:28:28.541Z,95083.23
2022-09-09T11:30:57.016Z,95078.48
2022-09-09T11:33:22.211Z,95075.34
2022-09-09T11:35:48.550Z,95074.67
2022-09-09T11:38:14.925Z,95069.50
2022-09-09T11:40:41.232Z,95062.33
2022-09-09T11:43:07.584Z,95056.02
2022-09-09T11:45:33.941Z,95054.09
2022-09-09T11:48:00.349Z,95047.08
2022-09-09T11:50:26.727Z,95044.02
2022-09-09T11:52:53.073Z,95038.45
2022-09-09T11:57:57.695Z,95026.25
2022-09-09T12:00:24.271Z,95011.79
2022-09-09T12:02:50.604Z,95008.33
2022-09-09T12:05:17.065Z,95005.39
2022-09-09T12:07:43.332Z,95006.22
2022-09-09T12:10:09.687Z,95011.03
2022-09-09T12:12:39.176Z,95017.47
2022-09-09T12:15:02.369Z,94989.20
2022-09-09T12:17:28.756Z,95014.88
2022-09-09T12:19:55.119Z,95012.14
2022-09-09T12:22:21.452Z,95007.79
2022-09-09T12:24:47.834Z,94998.94
2022-09-09T12:27:14.135Z,95001.87
2022-09-09T12:29:40.531Z,95001.05
2022-09-09T12:32:06.884Z,94994.46
2022-09-09T12:34:34.607Z,94992.34
2022-09-09T12:36:59.590Z,94993.64
2022-09-09T12:39:25.942Z,94985.80
2022-09-09T12:41:52.357Z,94978.16
2022-09-09T12:44:18.702Z,94985.80
2022-09-09T12:46:45.045Z,94979.73
2022-09-09T12:49:11.389Z,94975.30
2022-09-09T12:51:37.734Z,94975.84
2022-09-09T12:54:04.109Z,94975.02
2022-09-09T12:56:30.443Z,94981.08
2022-09-09T12:58:56.810Z,94983.13
2022-09-09T13:01:23.289Z,94973.67
2022-09-09T13:03:49.525Z,94970.54
2022-09-09T13:06:15.869Z,94961.50
2022-09-09T13:08:42.242Z,94964.16
2022-09-09T13:11:08.573Z,94957.89
2022-09-09T13:13:34.963Z,94955.42
2022-09-09T13:16:01.328Z,94951.50
2022-09-09T13:18:27.633Z,94942.69
2022-09-09T13:20:54.005Z,94947.66
2022-09-09T13:23:20.354Z,94948.84
2022-09-09T13:25:46.691Z,94946.64
2022-09-09T13:28:13.040Z,94945.08
2022-09-09T13:30:39.431Z,94947.34
2022-09-09T13:33:05.741Z,94938.94
2022-09-09T13:35:32.087Z,94943.23
2022-09-09T13:37:58.430Z,94937.73
2022-09-09T13:40:24.769Z,94935.22
2022-09-09T13:42:51.132Z,94922.89
2022-09-09T13:45:17.459Z,94930.11
2022-09-09T13:47:43.825Z,94931.87
2022-09-09T13:50:10.195Z,94928.73
2022-09-09T13:52:36.594Z,94931.13
2022-09-09T13:55:02.960Z,94927.52
2022-09-09T13:57:29.309Z,94918.55
2022-09-09T14:00:11.003Z,94912.83
2022-09-09T14:02:23.302Z,94908.55
2022-09-09T14:04:48.422Z,94908.39
2022-09-09T14:07:14.722Z,94913.49
2022-09-09T14:09:41.065Z,94906.98
2022-09-09T14:12:07.415Z,94912.94
2022-09-09T14:14:33.754Z,94905.05
2022-09-09T14:17:00.097Z,94904.14
2022-09-09T14:19:26.451Z,94909.25
2022-09-09T14:21:52.797Z,94899.30
2022-09-09T14:24:19.140Z,94907.16
2022-09-09T14:26:45.495Z,94909.09
2022-09-09T14:29:11.840Z,94912.35
2022-09-09T14:31:38.195Z,94903.14
2022-09-09T14:34:04.544Z,94898.59
2022-09-09T14:36:30.923Z,94892.61
2022-09-09T14:38:57.266Z,94900.29
2022-09-09T14:41:23.694Z,94890.97
2022-09-09T14:43:50.002Z,94891.12
2022-09-09T14:46:16.418Z,94890.34
2022-09-09T14:48:42.729Z,94894.45
2022-09-09T14:51:09.049Z,94892.53
2022-09-09T14:53:36.876Z,94884.11
2022-09-09T14:56:01.727Z,94886.81
2022-09-09T14:58:31.743Z,94882.62
2022-09-09T15:00:54.421Z,94892.92
2022-09-09T15:03:20.755Z,94889.17
2022-09-09T15:05:47.100Z,94893.52
2022-09-09T15:08:13.430Z,94893.80
2022-09-09T15:10:39.777Z,94895.16
2022-09-09T15:13:06.115Z,94895.09
2022-09-09T15:15:32.457Z,94897.75
2022-09-09T15:17:58.801Z,94899.05
2022-09-09T15:20:25.144Z,94907.34
2022-09-09T15:22:51.474Z,94905.98
2022-09-09T15:25:17.815Z,94910.83
2022-09-09T15:27:44.147Z,94908.84
2022-09-09T15:30:10.490Z,94906.52
2022-09-09T15:32:36.831Z,94908.84
2022-09-09T15:35:03.274Z,94900.13
2022-09-09T15:37:29.617Z,94901.98
2022-09-09T15:39:56.022Z,94899.16
2022-09-09T15:42:22.303Z,94900.33
2022-09-09T15:44:48.639Z,94897.28
2022-09-09T15:47:14.982Z,94897.75
2022-09-09T15:49:43.118Z,94898.33
2022-09-09T15:52:12.815Z,94893.80
2022-09-09T15:54:39.145Z,94900.25
2022-09-09T15:57:05.484Z,94893.90
2022-09-09T15:59:32.176Z,94893.55
2022-09-09T16:01:58.297Z,94885.86
2022-09-09T16:04:24.653Z,94890.84
2022-09-09T16:06:51.005Z,94885.69
2022-09-09T16:09:17.382Z,94880.84
2022-09-09T16:11:43.717Z,94884.18
2022-09-09T16:14:10.102Z,94892.55
2022-09-09T16:16:36.466Z,94890.52
2022-09-09T16:19:02.824Z,94885.36
2022-09-09T16:21:29.144Z,94898.62
2022-09-09T16:23:55.487Z,94892.02
2022-09-09T16:26:21.836Z,94891.81
2022-09-09T16:28:48.174Z,94898.39
2022-09-09T16:31:14.565Z,94895.14
2022-09-09T16:33:40.865Z,94894.52
2022-09-09T16:36:07.261Z,94890.99
2022-09-09T16:38:33.575Z,94888.56
2022-09-09T16:40:59.947Z,94891.38
2022-09-09T16:43:26.313Z,94892.67
2022-09-09T16:45:52.673Z,94892.08
2022-09-09T16:48:18.988Z,94895.81
2022-09-09T16:50:45.327Z,94897.38
2022-09-09T16:53:11.660Z,94871.23
2022-09-09T16:55:38.001Z,94903.92
2022-09-09T16:58:04.335Z,94902.63
2022-09-09T17:00:30.669Z,94900.04
2022-09-09T17:02:57.063Z,94901.53
2022-09-09T17:05:23.358Z,94897.19
2022-09-09T17:07:49.698Z,94898.36
2022-09-09T17:10:16.035Z,94897.45
2022-09-09T17:12:42.544Z,94902.44
2022-09-09T17:15:08.718Z,94903.25
2022-09-09T17:17:35.058Z,94904.08
2022-09-09T17:20:01.411Z,94905.02
2022-09-09T17:22:27.767Z,94911.40
2022-09-09T17:24:54.116Z,94910.66
2022-09-09T17:27:20.450Z,94907.32
2022-09-09T17:29:46.878Z,94911.20
2022-09-09T17:32:13.156Z,94912.02
2022-09-09T17:34:39.490Z,94910.53
2022-09-09T17:37:05.976Z,94918.48
2022-09-09T17:39:32.521Z,94920.45
2022-09-09T17:41:58.789Z,94926.98
2022-09-09T17:44:25.134Z,94929.30
2022-09-09T17:46:51.493Z,94933.53
2022-09-09T17:49:17.809Z,94932.91
2022-09-09T17:51:44.177Z,94931.97
2022-09-09T17:54:10.527Z,94940.75
2022-09-09T17:56:36.867Z,94950.62
2022-09-09T17:59:03.206Z,94954.34
2022-09-09T18:01:29.567Z,94954.70
2022-09-09T18:03:55.921Z,94955.52
2022-09-09T18:06:22.303Z,94953.48
2022-09-09T18:08:48.653Z,94954.16
2022-09-09T18:11:15.021Z,94958.62
2022-09-09T18:13:41.383Z,94958.47
2022-09-09T18:16:08.117Z,94960.47
2022-09-09T18:18:34.477Z,94963.72
2022-09-09T18:21:03.201Z,94967.60
2022-09-09T18:23:29.672Z,94959.02
2022-09-09T18:25:56.009Z,94959.02
2022-09-09T18:28:25.033Z,94962.31
2022-09-09T18:30:48.715Z,94964.08
2022-09-09T18:33:15.028Z,94960.52
2022-09-09T18:35:41.365Z,94973.80
2022-09-09T18:38:07.712Z,94978.37
2022-09-09T18:40:34.043Z,94979.80
2022-09-09T18:43:00.398Z,94980.14
2022-09-09T18:45:26.740Z,94992.92
2022-09-09T18:47:53.083Z,94987.28
2022-09-09T18:50:19.415Z,94988.22
2022-09-09T18:52:45.799Z,94993.27
2022-09-09T18:55:12.093Z,94991.16
2022-09-09T18:57:38.429Z,94994.92
2022-09-09T19:00:04.786Z,94994.09
2022-09-09T19:02:31.113Z,94989.48
2022-09-09T19:04:57.457Z,94988.66
2022-09-09T19:07:23.798Z,94993.67
2022-09-09T19:09:50.137Z,94985.13
2022-09-09T19:12:16.474Z,94981.45
2022-09-09T19:14:42.824Z,94979.17
2022-09-09T19:17:09.194Z,94974.83
2022-09-09T19:19:35.526Z,94967.69
2022-09-09T19:22:01.922Z,94968.04
2022-09-09T19:24:28.252Z,94964.16
2022-09-09T19:26:54.590Z,94967.53
2022-09-09T19:29:20.945Z,94965.45
2022-09-09T19:32:06.535Z,94961.89
2022-09-09T19:34:13.614Z,94955.42
2022-09-09T19:36:39.959Z,94956.40
2022-09-09T19:39:06.294Z,94957.54
2022-09-09T19:41:32.635Z,94953.19
2022-09-09T19:43:58.970Z,94945.91
2022-09-09T19:46:25.371Z,94944.48
2022-09-09T19:48:51.653Z,94942.84
2022-09-09T19:51:17.995Z,94941.08
2022-09-09T19:53:44.336Z,94944.48
2022-09-09T19:56:10.789Z,94941.90
2022-09-09T19:58:37.188Z,94941.08
2022-09-09T20:01:03.655Z,94938.49
2022-09-09T20:03:29.939Z,94937.52
2022-09-09T20:05:56.288Z,94932.84
2022-09-09T20:08:22.621Z,94924.27
2022-09-09T20:10:49.001Z,94926.50
2022-09-09T20:13:15.342Z,94925.20
2022-09-09T20:15:43.719Z,94919.56
2022-09-09T20:18:08.074Z,94924.27
2022-09-09T20:20:34.419Z,94916.98
2022-09-09T20:23:00.755Z,94914.04
2022-09-09T20:25:27.105Z,94917.45
2022-09-09T20:27:53.437Z,94920.98
2022-09-09T20:30:19.796Z,94919.02
2022-09-09T20:32:46.124Z,94925.36
2022-09-09T20:35:12.468Z,94919.37
2022-09-09T20:37:38.806Z,94923.56
2022-09-09T20:40:05.191Z,94917.59
2022-09-09T20:42:31.478Z,94919.21
2022-09-09T20:44:57.826Z,94920.98
2022-09-09T20:47:24.161Z,94924.06
2022-09-09T20:49:50.518Z,94930.53
2022-09-09T20:52:16.862Z,94928.73
2022-09-09T20:54:43.233Z,94924.54
2022-09-09T20:57:09.562Z,94924.54
2022-09-09T20:59:35.904Z,94928.27
2022-09-09T21:02:02.339Z,94929.71
2022-09-09T21:04:28.624Z,94936.02
2022-09-09T21:06:54.961Z,94931.33
2022-09-09T21:09:21.305Z,94931.00
2022-09-09T21:11:47.648Z,94935.01
2022-09-09T21:14:13.987Z,94934.06
2022-09-09T21:16:40.320Z,94938.30
2022-09-09T21:19:06.661Z,94938.30
2022-09-09T21:21:33.003Z,94933.59
2022-09-09T21:23:59.340Z,94936.65
2022-09-09T21:26:25.677Z,94943.59
2022-09-09T21:28:52.018Z,94934.41
2022-09-09T21:31:18.417Z,94935.01
2022-09-09T21:33:44.697Z,94938.89
2022-09-09T21:36:11.047Z,94939.71
2022-09-09T21:38:37.556Z,94938.06
2022-09-09T21:41:03.730Z,94941.82
2022-09-09T21:43:30.074Z,94936.77
2022-09-09T21:45:56.614Z,94936.77
2022-09-09T21:48:22.772Z,94933.24
2022-09-09T21:50:49.109Z,94935.83
2022-09-09T21:53:15.447Z,94935.01
2022-09-09T21:55:41.787Z,94932.42
2022-09-09T21:58:08.130Z,94929.83
2022-09-09T22:00:34.466Z,94934.06
2022-09-09T22:03:00.812Z,94937.59
2022-09-09T22:05:27.145Z,94936.30
2022-09-09T22:07:53.522Z,94938.06
2022-09-09T22:10:19.857Z,94935.48
2022-09-09T22:12:46.221Z,94931.13
2022-09-09T22:15:12.557Z,94932.10
2022-09-09T22:17:38.899Z,94934.19
2022-09-09T22:20:05.233Z,94933.72
2022-09-09T22:22:31.583Z,94921.25
2022-09-09T22:24:57.910Z,94917.87
2022-09-09T22:27:24.248Z,94926.58
2022-09-09T22:29:50.602Z,94923.37
2022-09-09T22:32:16.948Z,94922.55
2022-09-09T22:34:43.297Z,94922.08
2022-09-09T22:37:09.666Z,94920.31
2022-09-09T22:39:38.167Z,94914.78
2022-09-09T22:42:04.509Z,94913.49
2022-09-09T22:44:30.809Z,94919.17
2022-09-09T22:46:57.184Z,94910.12
2022-09-09T22:49:23.518Z,94912.08
2022-09-09T22:51:49.859Z,94913.49
2022-09-09T22:54:16.198Z,94910.91
2022-09-09T22:56:42.532Z,94909.14
2022-09-09T22:59:08.871Z,94907.03
2022-09-09T23:01:35.222Z,94905.73
2022-09-09T23:04:01.676Z,94905.73
2022-09-09T23:06:27.920Z,94901.54
2022-09-09T23:08:54.275Z,94913.49
2022-09-09T23:11:20.616Z,94910.91
2022-09-09T23:13:46.983Z,94911.88
2022-09-09T23:16:13.361Z,94919.48
2022-09-09T23:18:39.817Z,94911.73
2022-09-09T23:21:06.026Z,94906.56
2022-09-09T23:23:32.369Z,94909.14
2022-09-09T23:25:58.708Z,94905.41
2022-09-09T23:28:25.090Z,94896.36
2022-09-09T23:30:51.520Z,94899.42
2022-09-09T23:33:17.840Z,94890.38
2022-09-09T23:35:44.187Z,94898.12
2022-09-09T23:38:10.570Z,94898.95
2022-09-09T23:40:38.139Z,94891.19
2022-09-09T23:43:03.251Z,94895.89
2022-09-09T23:45:29.607Z,94894.25
2022-09-09T23:47:55.959Z,94874.03
2022-09-09T23:50:22.328Z,94880.84
2022-09-09T23:52:48.737Z,94886.84
2022-09-09T23:55:15.073Z,94882.61
2022-09-09T23:57:41.418Z,94877.91
